sensor_id;sensor_type;location;lat;lon;timestamp;pressure;altitude;pressure_sealevel;temperature;humidity
66206;BME280;53009;52.490;4.976;2023-11-21T00:03:37;155700;;;9;17
66206;BME280;53009;52.490;4.976;2023-11-21T00:08:37;155700;;;9;17.1
66206;BME280;53009;52.490;4.976;2023-11-21T00:13:37;155700;;;9;17.2
66206;BME280;53009;52.490;4.976;2023-11-21T00:18:37;155700;;;9;17.2
66206;BME280;53009;52.490;4.976;2023-11-21T00:23:37;155700;;;9.1;17.3
66206;BME280;53009;52.490;4.976;2023-11-21T00:28:37;155700;;;9.1;17.4
66206;BME280;53009;52.490;4.976;2023-11-21T00:33:37;155700;;;9.1;17.4
66206;BME280;53009;52.490;4.976;2023-11-21T00:38:37;155700;;;9.1;17.4
66206;BME280;53009;52.490;4.976;2023-11-21T00:43:37;155700;;;9.2;17.4
66206;BME280;53009;52.490;4.976;2023-11-21T00:48:37;155700;;;9.2;17.4
66206;BME280;53009;52.490;4.976;2023-11-21T00:53:37;155700;;;9.2;17.5
66206;BME280;53009;52.490;4.976;2023-11-21T00:58:37;155700;;;9.2;17.5
66206;BME280;53009;52.490;4.976;2023-11-21T01:03:37;155700;;;9.2;17.5
66206;BME280;53009;52.490;4.976;2023-11-21T01:08:37;155700;;;9.2;17.5
66206;BME280;53009;52.490;4.976;2023-11-21T01:13:37;155700;;;9.2;17.5
66206;BME280;53009;52.490;4.976;2023-11-21T01:18:37;155700;;;9.2;17.5
66206;BME280;53009;52.490;4.976;2023-11-21T01:23:37;155700;;;9.2;17.5
66206;BME280;53009;52.490;4.976;2023-11-21T01:28:37;155700;;;9.2;17.6
66206;BME280;53009;52.490;4.976;2023-11-21T01:33:37;155700;;;9.2;17.6
66206;BME280;53009;52.490;4.976;2023-11-21T01:38:37;155700;;;9.2;17.7
66206;BME280;53009;52.490;4.976;2023-11-21T01:43:37;155700;;;9.2;17.7
66206;BME280;53009;52.490;4.976;2023-11-21T01:48:37;155700;;;9.3;17.6
66206;BME280;53009;52.490;4.976;2023-11-21T01:53:37;155700;;;9.2;17.6
66206;BME280;53009;52.490;4.976;2023-11-21T01:58:37;155700;;;9.2;17.7
66206;BME280;53009;52.490;4.976;2023-11-21T02:03:37;155700;;;9.2;17.7
66206;BME280;53009;52.490;4.976;2023-11-21T02:08:37;155700;;;9.2;17.9
66206;BME280;53009;52.490;4.976;2023-11-21T02:13:37;155700;;;9.3;17.9
66206;BME280;53009;52.490;4.976;2023-11-21T02:18:37;155600;;;9.3;17.9
66206;BME280;53009;52.490;4.976;2023-11-21T02:23:37;155700;;;9.3;17.8
66206;BME280;53009;52.490;4.976;2023-11-21T02:28:37;155600;;;9.3;17.9
66206;BME280;53009;52.490;4.976;2023-11-21T02:33:37;155600;;;9.3;17.9
66206;BME280;53009;52.490;4.976;2023-11-21T02:38:37;155600;;;9.4;17.9
66206;BME280;53009;52.490;4.976;2023-11-21T02:43:37;155600;;;9.4;18
66206;BME280;53009;52.490;4.976;2023-11-21T02:48:37;155600;;;9.4;17.9
66206;BME280;53009;52.490;4.976;2023-11-21T02:53:37;155600;;;9.4;18
66206;BME280;53009;52.490;4.976;2023-11-21T02:58:37;155600;;;9.4;18
66206;BME280;53009;52.490;4.976;2023-11-21T03:03:37;155600;;;9.5;18.1
66206;BME280;53009;52.490;4.976;2023-11-21T03:08:37;155600;;;9.5;18.1
66206;BME280;53009;52.490;4.976;2023-11-21T03:13:37;155600;;;9.4;18
66206;BME280;53009;52.490;4.976;2023-11-21T03:18:37;155600;;;9.4;18
66206;BME280;53009;52.490;4.976;2023-11-21T03:23:37;155600;;;9.4;18
66206;BME280;53009;52.490;4.976;2023-11-21T03:28:37;155600;;;9.4;18
66206;BME280;53009;52.490;4.976;2023-11-21T03:33:37;155600;;;9.4;18.1
66206;BME280;53009;52.490;4.976;2023-11-21T03:38:37;155600;;;9.4;18
66206;BME280;53009;52.490;4.976;2023-11-21T03:43:37;155600;;;9.4;17.9
66206;BME280;53009;52.490;4.976;2023-11-21T03:48:37;155600;;;9.3;17.9
66206;BME280;53009;52.490;4.976;2023-11-21T03:53:37;155600;;;9.3;18
66206;BME280;53009;52.490;4.976;2023-11-21T03:58:37;155600;;;9.3;17.9
66206;BME280;53009;52.490;4.976;2023-11-21T04:03:37;155600;;;9.2;17.9
66206;BME280;53009;52.490;4.976;2023-11-21T04:08:37;155600;;;9.2;17.9
66206;BME280;53009;52.490;4.976;2023-11-21T04:13:37;155600;;;9.2;18.1
66206;BME280;53009;52.490;4.976;2023-11-21T04:18:37;155600;;;9.2;17.9
66206;BME280;53009;52.490;4.976;2023-11-21T04:23:37;155600;;;9.3;18.4
66206;BME280;53009;52.490;4.976;2023-11-21T04:28:37;155700;;;9.4;18.7
66206;BME280;53009;52.490;4.976;2023-11-21T04:33:37;155800;;;9.5;18.7
66206;BME280;53009;52.490;4.976;2023-11-21T04:38:37;155800;;;9.6;18.7
66206;BME280;53009;52.490;4.976;2023-11-21T04:43:37;155800;;;9.6;18.9
66206;BME280;53009;52.490;4.976;2023-11-21T04:48:37;155800;;;9.7;19.1
66206;BME280;53009;52.490;4.976;2023-11-21T04:53:37;155800;;;9.7;19.4
66206;BME280;53009;52.490;4.976;2023-11-21T04:58:37;155800;;;9.8;19.3
66206;BME280;53009;52.490;4.976;2023-11-21T05:03:37;155700;;;9.8;19.4
66206;BME280;53009;52.490;4.976;2023-11-21T05:08:37;155700;;;9.9;19.8
66206;BME280;53009;52.490;4.976;2023-11-21T05:13:37;155600;;;9.9;19.7
66206;BME280;53009;52.490;4.976;2023-11-21T05:18:37;155600;;;9.9;19.6
66206;BME280;53009;52.490;4.976;2023-11-21T05:23:37;155600;;;9.9;20
66206;BME280;53009;52.490;4.976;2023-11-21T05:28:37;155600;;;10;20
66206;BME280;53009;52.490;4.976;2023-11-21T05:33:37;155600;;;10;19.7
66206;BME280;53009;52.490;4.976;2023-11-21T05:38:37;155600;;;10.1;19.9
66206;BME280;53009;52.490;4.976;2023-11-21T05:43:37;155600;;;10.1;20.2
66206;BME280;53009;52.490;4.976;2023-11-21T05:48:37;155600;;;10.1;20.1
66206;BME280;53009;52.490;4.976;2023-11-21T05:53:37;155600;;;10.1;20.2
66206;BME280;53009;52.490;4.976;2023-11-21T05:58:37;155500;;;10.1;20.4
66206;BME280;53009;52.490;4.976;2023-11-21T06:03:37;155500;;;10.2;20.3
66206;BME280;53009;52.490;4.976;2023-11-21T06:08:37;155500;;;10.2;20.7
66206;BME280;53009;52.490;4.976;2023-11-21T06:13:37;155500;;;10.2;20.7
66206;BME280;53009;52.490;4.976;2023-11-21T06:18:37;155500;;;10.2;20.7
66206;BME280;53009;52.490;4.976;2023-11-21T06:23:37;155500;;;10.2;20.8
66206;BME280;53009;52.490;4.976;2023-11-21T06:28:37;155500;;;10.2;20.7
66206;BME280;53009;52.490;4.976;2023-11-21T06:33:37;155500;;;10.3;20.8
66206;BME280;53009;52.490;4.976;2023-11-21T06:38:37;155500;;;10.2;20.7
66206;BME280;53009;52.490;4.976;2023-11-21T06:43:37;155500;;;10.3;20.7
66206;BME280;53009;52.490;4.976;2023-11-21T06:48:37;155500;;;10.2;20.5
66206;BME280;53009;52.490;4.976;2023-11-21T06:53:37;155500;;;10.2;20.3
66206;BME280;53009;52.490;4.976;2023-11-21T06:58:37;155500;;;10.3;20.3
66206;BME280;53009;52.490;4.976;2023-11-21T07:03:37;155500;;;10.3;20.3
66206;BME280;53009;52.490;4.976;2023-11-21T07:08:37;155500;;;10.3;20.4
66206;BME280;53009;52.490;4.976;2023-11-21T07:13:37;155500;;;10.3;20.3
66206;BME280;53009;52.490;4.976;2023-11-21T07:18:37;155500;;;10.3;20.3
66206;BME280;53009;52.490;4.976;2023-11-21T07:23:37;155500;;;10.3;20.2
66206;BME280;53009;52.490;4.976;2023-11-21T07:28:37;155500;;;10.3;20.1
66206;BME280;53009;52.490;4.976;2023-11-21T07:33:37;155600;;;10.3;20.1
66206;BME280;53009;52.490;4.976;2023-11-21T07:38:37;155600;;;10.4;20.2
66206;BME280;53009;52.490;4.976;2023-11-21T07:43:37;155600;;;10.4;20.1
66206;BME280;53009;52.490;4.976;2023-11-21T07:48:37;155600;;;10.4;20
66206;BME280;53009;52.490;4.976;2023-11-21T07:53:37;155600;;;10.4;20.2
66206;BME280;53009;52.490;4.976;2023-11-21T07:58:37;155600;;;10.4;20.2
66206;BME280;53009;52.490;4.976;2023-11-21T08:03:37;155700;;;10.4;20.3
66206;BME280;53009;52.490;4.976;2023-11-21T08:08:37;155700;;;10.4;20.3
66206;BME280;53009;52.490;4.976;2023-11-21T08:13:37;155700;;;10.4;19.9
66206;BME280;53009;52.490;4.976;2023-11-21T08:18:37;155700;;;10.4;19.8
66206;BME280;53009;52.490;4.976;2023-11-21T08:23:37;155800;;;10.3;19.7
66206;BME280;53009;52.490;4.976;2023-11-21T08:28:37;155800;;;10.3;19.7
66206;BME280;53009;52.490;4.976;2023-11-21T08:33:37;155800;;;10.3;19.5
66206;BME280;53009;52.490;4.976;2023-11-21T08:38:37;155800;;;10.2;19.4
66206;BME280;53009;52.490;4.976;2023-11-21T08:43:37;155800;;;10.2;19.4
66206;BME280;53009;52.490;4.976;2023-11-21T08:48:37;155800;;;10.3;19.3
66206;BME280;53009;52.490;4.976;2023-11-21T08:53:38;155900;;;10.2;19.1
66206;BME280;53009;52.490;4.976;2023-11-21T08:58:37;155900;;;10.3;19.3
66206;BME280;53009;52.490;4.976;2023-11-21T09:03:37;155900;;;10.2;19.2
66206;BME280;53009;52.490;4.976;2023-11-21T09:08:37;155900;;;10.2;19.2
66206;BME280;53009;52.490;4.976;2023-11-21T09:13:37;155900;;;10.3;19.3
66206;BME280;53009;52.490;4.976;2023-11-21T09:18:37;155900;;;10.3;19.2
66206;BME280;53009;52.490;4.976;2023-11-21T09:23:37;155900;;;10.3;18.9
66206;BME280;53009;52.490;4.976;2023-11-21T09:28:37;155900;;;10.3;18.9
66206;BME280;53009;52.490;4.976;2023-11-21T09:33:37;155900;;;10.3;18.4
66206;BME280;53009;52.490;4.976;2023-11-21T09:38:37;155600;;;10.3;18.6
66206;BME280;53009;52.490;4.976;2023-11-21T09:43:37;155900;;;10.4;18.3
66206;BME280;53009;52.490;4.976;2023-11-21T09:48:37;155900;;;10.3;18.2
66206;BME280;53009;52.490;4.976;2023-11-21T09:53:37;155900;;;10.3;18.2
66206;BME280;53009;52.490;4.976;2023-11-21T09:58:37;155700;;;10.2;18.4
66206;BME280;53009;52.490;4.976;2023-11-21T10:03:37;155900;;;10.3;18.4
66206;BME280;53009;52.490;4.976;2023-11-21T10:08:37;155900;;;10.4;18.4
66206;BME280;53009;52.490;4.976;2023-11-21T10:13:37;155900;;;10.3;17.3
66206;BME280;53009;52.490;4.976;2023-11-21T10:18:37;155900;;;10.3;17.1
66206;BME280;53009;52.490;4.976;2023-11-21T10:23:37;155900;;;10.4;17.2
66206;BME280;53009;52.490;4.976;2023-11-21T10:28:37;156000;;;10.4;17
66206;BME280;53009;52.490;4.976;2023-11-21T10:33:37;156000;;;10.4;16.9
66206;BME280;53009;52.490;4.976;2023-11-21T10:38:42;156000;;;10.3;16.7
66206;BME280;53009;52.490;4.976;2023-11-21T10:43:38;156000;;;10.4;16.7
66206;BME280;53009;52.490;4.976;2023-11-21T10:48:37;156000;;;10.4;16
66206;BME280;53009;52.490;4.976;2023-11-21T10:53:39;156000;;;10.4;15.6
66206;BME280;53009;52.490;4.976;2023-11-21T10:58:37;155900;;;10.4;15.6
66206;BME280;53009;52.490;4.976;2023-11-21T11:03:37;155900;;;10.4;15.4
66206;BME280;53009;52.490;4.976;2023-11-21T11:08:37;155900;;;10.4;15
66206;BME280;53009;52.490;4.976;2023-11-21T11:13:37;155900;;;10.4;15
66206;BME280;53009;52.490;4.976;2023-11-21T11:18:37;155900;;;10.4;14.8
66206;BME280;53009;52.490;4.976;2023-11-21T11:23:43;155900;;;10.4;14.9
66206;BME280;53009;52.490;4.976;2023-11-21T11:28:38;155900;;;10.6;14.6
66206;BME280;53009;52.490;4.976;2023-11-21T11:33:39;155900;;;10.8;13.9
66206;BME280;53009;52.490;4.976;2023-11-21T11:38:37;155900;;;10.7;14.3
66206;BME280;53009;52.490;4.976;2023-11-21T11:43:37;155900;;;10.5;14.4
66206;BME280;53009;52.490;4.976;2023-11-21T11:48:37;155800;;;10.5;14.2
66206;BME280;53009;52.490;4.976;2023-11-21T11:53:38;155800;;;10.3;14.4
66206;BME280;53009;52.490;4.976;2023-11-21T11:58:37;155900;;;10.4;14.7
66206;BME280;53009;52.490;4.976;2023-11-21T12:03:37;155900;;;10.5;14.6
66206;BME280;53009;52.490;4.976;2023-11-21T12:08:38;155900;;;10.4;14.7
66206;BME280;53009;52.490;4.976;2023-11-21T12:13:37;155900;;;10.6;14.6
66206;BME280;53009;52.490;4.976;2023-11-21T12:18:37;156000;;;10.5;14.6
66206;BME280;53009;52.490;4.976;2023-11-21T12:23:37;156000;;;10.6;14.4
66206;BME280;53009;52.490;4.976;2023-11-21T12:28:38;155900;;;10.5;14.4
66206;BME280;53009;52.490;4.976;2023-11-21T12:33:38;155900;;;10.4;14.4
66206;BME280;53009;52.490;4.976;2023-11-21T12:38:37;155900;;;10.3;14.5
66206;BME280;53009;52.490;4.976;2023-11-21T12:43:38;155900;;;10.3;14.7
66206;BME280;53009;52.490;4.976;2023-11-21T12:48:37;155900;;;10.4;14.4
66206;BME280;53009;52.490;4.976;2023-11-21T12:53:38;156000;;;10.3;14.5
66206;BME280;53009;52.490;4.976;2023-11-21T12:58:38;156000;;;10.2;14.5
66206;BME280;53009;52.490;4.976;2023-11-21T13:03:38;156000;;;10.1;14.5
66206;BME280;53009;52.490;4.976;2023-11-21T13:08:37;156000;;;10.1;14.6
66206;BME280;53009;52.490;4.976;2023-11-21T13:13:39;156000;;;10.1;14.4
66206;BME280;53009;52.490;4.976;2023-11-21T13:18:38;156100;;;10.1;14.5
66206;BME280;53009;52.490;4.976;2023-11-21T13:23:38;156100;;;10.1;14.4
66206;BME280;53009;52.490;4.976;2023-11-21T13:28:38;156100;;;10.1;14.4
66206;BME280;53009;52.490;4.976;2023-11-21T13:33:38;156100;;;10.2;14.2
66206;BME280;53009;52.490;4.976;2023-11-21T13:38:38;156100;;;10.1;14.2
66206;BME280;53009;52.490;4.976;2023-11-21T13:43:38;156100;;;10;14.3
66206;BME280;53009;52.490;4.976;2023-11-21T13:48:38;156000;;;10;14.3
66206;BME280;53009;52.490;4.976;2023-11-21T13:53:38;156000;;;9.9;14.3
66206;BME280;53009;52.490;4.976;2023-11-21T13:58:38;155900;;;9.9;14.2
66206;BME280;53009;52.490;4.976;2023-11-21T14:03:38;155900;;;10;14.2
66206;BME280;53009;52.490;4.976;2023-11-21T14:08:38;155900;;;10;14.1
66206;BME280;53009;52.490;4.976;2023-11-21T14:13:38;155900;;;10;14
66206;BME280;53009;52.490;4.976;2023-11-21T14:18:38;155900;;;9.9;14.2
66206;BME280;53009;52.490;4.976;2023-11-21T14:23:38;155900;;;9.9;14.2
66206;BME280;53009;52.490;4.976;2023-11-21T14:28:38;155900;;;9.8;14.1
66206;BME280;53009;52.490;4.976;2023-11-21T14:33:38;155900;;;9.8;14.3
66206;BME280;53009;52.490;4.976;2023-11-21T14:38:38;155900;;;9.7;14
66206;BME280;53009;52.490;4.976;2023-11-21T14:43:38;155800;;;9.7;14.1
66206;BME280;53009;52.490;4.976;2023-11-21T14:48:38;155800;;;9.7;14.1
66206;BME280;53009;52.490;4.976;2023-11-21T14:53:38;155800;;;9.7;14
66206;BME280;53009;52.490;4.976;2023-11-21T14:58:38;155800;;;9.6;14.1
66206;BME280;53009;52.490;4.976;2023-11-21T15:03:38;155800;;;9.7;14.2
66206;BME280;53009;52.490;4.976;2023-11-21T15:08:38;155800;;;9.6;14.1
66206;BME280;53009;52.490;4.976;2023-11-21T15:13:38;155800;;;9.5;14.2
66206;BME280;53009;52.490;4.976;2023-11-21T15:18:38;155800;;;9.4;14.1
66206;BME280;53009;52.490;4.976;2023-11-21T15:23:38;155800;;;9.3;14.2
66206;BME280;53009;52.490;4.976;2023-11-21T15:28:38;155800;;;9.3;14
66206;BME280;53009;52.490;4.976;2023-11-21T15:33:38;155800;;;9.3;14.2
66206;BME280;53009;52.490;4.976;2023-11-21T15:38:38;155800;;;9.2;14.1
66206;BME280;53009;52.490;4.976;2023-11-21T15:43:38;155800;;;9.2;14.4
66206;BME280;53009;52.490;4.976;2023-11-21T15:48:38;155800;;;9.2;14.4
66206;BME280;53009;52.490;4.976;2023-11-21T15:53:38;155800;;;9.2;14.5
66206;BME280;53009;52.490;4.976;2023-11-21T15:58:38;155800;;;9.2;14.5
66206;BME280;53009;52.490;4.976;2023-11-21T16:03:38;155800;;;9.1;14.5
66206;BME280;53009;52.490;4.976;2023-11-21T16:08:38;155800;;;9;14.2
66206;BME280;53009;52.490;4.976;2023-11-21T16:13:38;155800;;;9;14.2
66206;BME280;53009;52.490;4.976;2023-11-21T16:18:38;155800;;;8.9;14.3
66206;BME280;53009;52.490;4.976;2023-11-21T16:23:38;155800;;;8.8;14.5
66206;BME280;53009;52.490;4.976;2023-11-21T16:28:38;155800;;;8.7;14.7
66206;BME280;53009;52.490;4.976;2023-11-21T16:33:38;155800;;;8.7;14.6
66206;BME280;53009;52.490;4.976;2023-11-21T16:38:38;155800;;;8.7;14.7
66206;BME280;53009;52.490;4.976;2023-11-21T16:43:38;155800;;;8.6;14.7
66206;BME280;53009;52.490;4.976;2023-11-21T16:48:38;155800;;;8.6;14.6
66206;BME280;53009;52.490;4.976;2023-11-21T16:53:38;155800;;;8.6;14.6
66206;BME280;53009;52.490;4.976;2023-11-21T16:58:38;155800;;;8.6;14.6
66206;BME280;53009;52.490;4.976;2023-11-21T17:03:38;155700;;;8.6;14.5
66206;BME280;53009;52.490;4.976;2023-11-21T17:08:38;155700;;;8.6;14.6
66206;BME280;53009;52.490;4.976;2023-11-21T17:13:38;155700;;;8.6;14.5
66206;BME280;53009;52.490;4.976;2023-11-21T17:18:38;155700;;;8.6;14.5
66206;BME280;53009;52.490;4.976;2023-11-21T17:23:38;155800;;;8.7;14.6
66206;BME280;53009;52.490;4.976;2023-11-21T17:28:38;155800;;;8.6;14.6
66206;BME280;53009;52.490;4.976;2023-11-21T17:33:38;155800;;;8.5;14.7
66206;BME280;53009;52.490;4.976;2023-11-21T17:38:38;155800;;;8.5;14.9
66206;BME280;53009;52.490;4.976;2023-11-21T17:43:38;155800;;;8.4;15
66206;BME280;53009;52.490;4.976;2023-11-21T17:48:38;155900;;;8.4;15.1
66206;BME280;53009;52.490;4.976;2023-11-21T17:53:38;155900;;;8.3;15.2
66206;BME280;53009;52.490;4.976;2023-11-21T17:58:38;155900;;;8.2;15.3
66206;BME280;53009;52.490;4.976;2023-11-21T18:03:38;155900;;;8.2;15.3
66206;BME280;53009;52.490;4.976;2023-11-21T18:08:38;155900;;;8.2;15.4
66206;BME280;53009;52.490;4.976;2023-11-21T18:13:38;155900;;;8.2;15.5
66206;BME280;53009;52.490;4.976;2023-11-21T18:18:38;155900;;;8.1;15.5
66206;BME280;53009;52.490;4.976;2023-11-21T18:23:38;155900;;;8.1;15.6
66206;BME280;53009;52.490;4.976;2023-11-21T18:28:38;155900;;;8.1;15.6
66206;BME280;53009;52.490;4.976;2023-11-21T18:33:38;155900;;;8;15.7
66206;BME280;53009;52.490;4.976;2023-11-21T18:38:38;155900;;;8;15.9
66206;BME280;53009;52.490;4.976;2023-11-21T18:43:39;155900;;;7.9;15.8
66206;BME280;53009;52.490;4.976;2023-11-21T18:48:38;155900;;;7.9;15.9
66206;BME280;53009;52.490;4.976;2023-11-21T18:53:38;155900;;;7.9;15.9
66206;BME280;53009;52.490;4.976;2023-11-21T18:58:38;155900;;;7.8;15.9
66206;BME280;53009;52.490;4.976;2023-11-21T19:03:41;155900;;;7.8;15.9
66206;BME280;53009;52.490;4.976;2023-11-21T19:08:40;155900;;;7.8;15.9
66206;BME280;53009;52.490;4.976;2023-11-21T19:13:38;155900;;;7.7;15.9
66206;BME280;53009;52.490;4.976;2023-11-21T19:18:38;155900;;;7.7;15.8
66206;BME280;53009;52.490;4.976;2023-11-21T19:23:38;155900;;;7.6;15.8
66206;BME280;53009;52.490;4.976;2023-11-21T19:28:38;155900;;;7.6;15.9
66206;BME280;53009;52.490;4.976;2023-11-21T19:33:38;155900;;;7.6;15.9
66206;BME280;53009;52.490;4.976;2023-11-21T19:38:38;155900;;;7.6;15.9
66206;BME280;53009;52.490;4.976;2023-11-21T19:43:38;155900;;;7.6;15.9
66206;BME280;53009;52.490;4.976;2023-11-21T19:48:38;155900;;;7.7;16
66206;BME280;53009;52.490;4.976;2023-11-21T19:53:38;155900;;;7.7;15.9
66206;BME280;53009;52.490;4.976;2023-11-21T19:58:38;155900;;;7.8;16
66206;BME280;53009;52.490;4.976;2023-11-21T20:03:38;155900;;;7.8;15.9
66206;BME280;53009;52.490;4.976;2023-11-21T20:08:38;155900;;;7.8;16
66206;BME280;53009;52.490;4.976;2023-11-21T20:13:38;155900;;;7.8;15.9
66206;BME280;53009;52.490;4.976;2023-11-21T20:18:38;155900;;;7.9;15.9
66206;BME280;53009;52.490;4.976;2023-11-21T20:23:38;155900;;;7.9;15.9
66206;BME280;53009;52.490;4.976;2023-11-21T20:28:38;155900;;;7.9;15.9
66206;BME280;53009;52.490;4.976;2023-11-21T20:33:38;155800;;;7.9;16
66206;BME280;53009;52.490;4.976;2023-11-21T20:38:38;155800;;;7.9;15.9
66206;BME280;53009;52.490;4.976;2023-11-21T20:43:38;155800;;;7.8;15.8
66206;BME280;53009;52.490;4.976;2023-11-21T20:48:38;155800;;;7.8;15.8
66206;BME280;53009;52.490;4.976;2023-11-21T20:53:38;155800;;;7.7;15.8
66206;BME280;53009;52.490;4.976;2023-11-21T20:58:38;155800;;;7.7;15.9
66206;BME280;53009;52.490;4.976;2023-11-21T21:03:38;155800;;;7.7;15.8
66206;BME280;53009;52.490;4.976;2023-11-21T21:08:38;155800;;;7.7;15.9
66206;BME280;53009;52.490;4.976;2023-11-21T21:13:38;155800;;;7.7;15.9
66206;BME280;53009;52.490;4.976;2023-11-21T21:18:38;155800;;;7.7;15.9
66206;BME280;53009;52.490;4.976;2023-11-21T21:23:38;155800;;;7.7;15.9
66206;BME280;53009;52.490;4.976;2023-11-21T21:28:38;155800;;;7.7;16
66206;BME280;53009;52.490;4.976;2023-11-21T21:33:38;155800;;;7.7;15.9
66206;BME280;53009;52.490;4.976;2023-11-21T21:38:38;155800;;;7.8;16
66206;BME280;53009;52.490;4.976;2023-11-21T21:43:38;155800;;;7.8;16
66206;BME280;53009;52.490;4.976;2023-11-21T21:48:38;155800;;;7.8;16
66206;BME280;53009;52.490;4.976;2023-11-21T21:53:38;155700;;;7.9;16.1
66206;BME280;53009;52.490;4.976;2023-11-21T21:58:38;155700;;;7.8;16.3
66206;BME280;53009;52.490;4.976;2023-11-21T22:03:38;155700;;;7.8;16.2
66206;BME280;53009;52.490;4.976;2023-11-21T22:08:38;155700;;;7.7;16.1
66206;BME280;53009;52.490;4.976;2023-11-21T22:13:38;155700;;;7.6;16.2
66206;BME280;53009;52.490;4.976;2023-11-21T22:18:38;155700;;;7.6;16.2
66206;BME280;53009;52.490;4.976;2023-11-21T22:23:38;155700;;;7.6;16.3
66206;BME280;53009;52.490;4.976;2023-11-21T22:28:38;155700;;;7.7;16.4
66206;BME280;53009;52.490;4.976;2023-11-21T22:33:38;155700;;;7.6;16.3
66206;BME280;53009;52.490;4.976;2023-11-21T22:38:39;155700;;;7.7;16.4
66206;BME280;53009;52.490;4.976;2023-11-21T22:43:38;155700;;;7.7;16.4
66206;BME280;53009;52.490;4.976;2023-11-21T22:48:38;155700;;;7.7;16.5
66206;BME280;53009;52.490;4.976;2023-11-21T22:53:38;155700;;;7.7;16.5
66206;BME280;53009;52.490;4.976;2023-11-21T22:58:38;155600;;;7.7;16.6
66206;BME280;53009;52.490;4.976;2023-11-21T23:03:38;155600;;;7.7;16.6
66206;BME280;53009;52.490;4.976;2023-11-21T23:08:38;155600;;;7.7;16.5
66206;BME280;53009;52.490;4.976;2023-11-21T23:13:38;155600;;;7.7;16.6
66206;BME280;53009;52.490;4.976;2023-11-21T23:18:38;155600;;;7.7;16.7
66206;BME280;53009;52.490;4.976;2023-11-21T23:23:38;155600;;;7.7;16.7
66206;BME280;53009;52.490;4.976;2023-11-21T23:28:38;155600;;;7.6;16.6
66206;BME280;53009;52.490;4.976;2023-11-21T23:33:38;155600;;;7.6;16.6
66206;BME280;53009;52.490;4.976;2023-11-21T23:38:38;155600;;;7.6;16.7
66206;BME280;53009;52.490;4.976;2023-11-21T23:43:38;155600;;;7.6;16.7
66206;BME280;53009;52.490;4.976;2023-11-21T23:48:38;155600;;;7.6;16.7
66206;BME280;53009;52.490;4.976;2023-11-21T23:53:38;155600;;;7.6;16.8
66206;BME280;53009;52.490;4.976;2023-11-21T23:58:38;155600;;;7.6;16.8
